Time;durP1;ratioP1;P1;durP2;ratioP2;P2;SDS_P1;SDS_P2;PMS_P1;PMS_P2;Temp;Humidity;BMP_temperature;BMP_pressure;BME280_temperature;BME280_humidity;BME280_pressure;Samples;Min_cycle;Max_cycle;Signal;HPM_P1;HPM_P2
2021/04/18 00:02:20;;;;;;;5.78;2.38;;;5.30;98.40;;;;;;5103540;28;20091;-83
2021/04/18 00:04:46;;;;;;;6.32;2.17;;;5.30;98.40;;;;;;5091313;28;20115;-84
2021/04/18 00:07:12;;;;;;;5.65;2.60;;;5.30;98.50;;;;;;5091090;28;20126;-84
2021/04/18 00:09:38;;;;;;;7.70;2.80;;;5.20;98.60;;;;;;5090509;28;20089;-85
2021/04/18 00:12:05;;;;;;;5.70;2.58;;;5.20;98.60;;;;;;5092181;28;20135;-82
2021/04/18 00:14:30;;;;;;;6.22;2.60;;;5.20;98.80;;;;;;5109816;28;20024;-84
2021/04/18 00:16:56;;;;;;;5.63;2.40;;;5.20;98.80;;;;;;5109508;28;20044;-83
2021/04/18 00:19:21;;;;;;;4.95;2.58;;;5.10;98.90;;;;;;5085835;28;20020;-83
2021/04/18 00:21:48;;;;;;;6.00;2.17;;;5.10;99.00;;;;;;5070623;28;20123;-85
2021/04/18 00:24:14;;;;;;;5.25;2.63;;;5.10;99.10;;;;;;5089170;28;20027;-84
2021/04/18 00:26:39;;;;;;;6.55;3.20;;;5.10;99.10;;;;;;5090234;28;20032;-84
2021/04/18 00:29:05;;;;;;;6.57;2.35;;;5.10;99.20;;;;;;5089836;28;20029;-84
2021/04/18 00:31:31;;;;;;;5.45;2.65;;;5.10;99.30;;;;;;5093191;28;20032;-84
2021/04/18 00:33:56;;;;;;;5.63;2.78;;;5.10;99.40;;;;;;5074152;28;20020;-84
2021/04/18 00:36:22;;;;;;;6.85;2.10;;;5.10;99.50;;;;;;5092369;28;20069;-85
2021/04/18 00:38:50;;;;;;;6.25;2.30;;;5.10;99.60;;;;;;5093529;28;20113;-85
2021/04/18 00:41:16;;;;;;;5.93;2.30;;;5.10;99.60;;;;;;5077868;28;20066;-84
2021/04/18 00:43:42;;;;;;;5.50;2.10;;;5.10;99.70;;;;;;5094544;28;20024;-83
2021/04/18 00:46:10;;;;;;;7.47;2.65;;;5.00;99.70;;;;;;5096545;28;20019;-83
2021/04/18 00:48:43;;;;;;;5.95;2.22;;;5.00;99.80;;;;;;5115321;28;20372;-82
2021/04/18 00:51:10;;;;;;;3.72;1.83;;;5.00;99.90;;;;;;5090594;28;20470;-86
2021/04/18 00:53:36;;;;;;;6.57;2.47;;;5.00;99.90;;;;;;5079779;28;20491;-84
2021/04/18 00:56:03;;;;;;;6.15;2.50;;;5.00;99.90;;;;;;5082577;28;20028;-85
2021/04/18 00:58:29;;;;;;;5.93;2.40;;;5.00;99.90;;;;;;5075250;28;20557;-83
2021/04/18 01:00:55;;;;;;;7.85;2.90;;;4.90;99.90;;;;;;5107931;28;20053;-84
2021/04/18 01:03:20;;;;;;;5.25;2.50;;;4.90;99.90;;;;;;5077218;28;20027;-84
2021/04/18 01:05:46;;;;;;;5.57;2.33;;;4.80;99.90;;;;;;5103270;28;20408;-84
2021/04/18 01:08:12;;;;;;;5.38;2.70;;;4.80;99.90;;;;;;5084781;28;20045;-83
2021/04/18 01:10:38;;;;;;;4.40;2.10;;;4.80;99.90;;;;;;5095693;28;20032;-84
2021/04/18 01:13:04;;;;;;;3.97;2.00;;;4.80;99.90;;;;;;5089487;28;20049;-84
2021/04/18 01:15:30;;;;;;;4.13;2.13;;;4.80;99.90;;;;;;5077916;28;20563;-85
2021/04/18 01:17:55;;;;;;;5.28;2.15;;;4.70;99.90;;;;;;5066649;28;20052;-84
2021/04/18 01:20:23;;;;;;;5.72;2.45;;;4.70;99.90;;;;;;5085243;28;20024;-83
2021/04/18 01:22:50;;;;;;;6.07;2.95;;;4.70;99.90;;;;;;5076011;28;20024;-83
2021/04/18 01:25:16;;;;;;;5.80;2.70;;;4.60;99.90;;;;;;5088559;28;20074;-84
2021/04/18 01:27:45;;;;;;;7.47;2.35;;;4.60;99.90;;;;;;5092677;28;20052;-84
2021/04/18 01:30:18;;;;;;;7.03;2.60;;;4.50;99.90;;;;;;5089573;28;20023;-84
2021/04/18 01:32:46;;;;;;;5.38;2.60;;;4.50;99.90;;;;;;5075461;28;20462;-84
2021/04/18 01:35:13;;;;;;;6.90;2.65;;;4.40;99.90;;;;;;5091472;28;20031;-84
2021/04/18 01:37:40;;;;;;;5.18;2.22;;;4.40;99.90;;;;;;5086155;28;20074;-86
2021/04/18 01:40:17;;;;;;;4.85;2.17;;;4.40;99.90;;;;;;5082912;28;20073;-84
2021/04/18 01:42:44;;;;;;;10.07;3.22;;;4.40;99.90;;;;;;5108264;28;20118;-85
2021/04/18 01:45:11;;;;;;;7.97;3.20;;;4.30;99.90;;;;;;5114123;28;20028;-85
2021/04/18 01:47:38;;;;;;;5.93;2.72;;;4.30;99.90;;;;;;5095602;28;20082;-86
2021/04/18 01:50:06;;;;;;;6.72;2.70;;;4.30;99.90;;;;;;5077322;28;20573;-85
2021/04/18 01:52:31;;;;;;;9.00;2.90;;;4.30;99.90;;;;;;5090643;28;20493;-84
2021/04/18 01:54:57;;;;;;;4.95;2.67;;;4.30;99.90;;;;;;5094361;28;20065;-84
2021/04/18 01:57:23;;;;;;;6.80;2.47;;;4.20;99.90;;;;;;5096544;28;20178;-84
2021/04/18 01:59:48;;;;;;;7.72;2.45;;;4.20;99.90;;;;;;5082334;28;20023;-85
2021/04/18 02:02:14;;;;;;;6.18;2.13;;;4.20;99.90;;;;;;5081039;28;20032;-84
2021/04/18 02:04:40;;;;;;;7.70;2.80;;;4.20;99.90;;;;;;5105641;28;20540;-83
2021/04/18 02:07:06;;;;;;;8.75;2.83;;;4.20;99.90;;;;;;5074701;28;20405;-84
2021/04/18 02:09:33;;;;;;;6.18;2.80;;;4.20;99.90;;;;;;5076177;28;20032;-85
2021/04/18 02:12:01;;;;;;;9.10;3.60;;;4.20;99.90;;;;;;5094604;28;20024;-84
2021/04/18 02:14:27;;;;;;;5.25;2.30;;;4.10;99.90;;;;;;5076597;28;20020;-83
2021/04/18 02:16:53;;;;;;;7.22;2.80;;;4.10;99.90;;;;;;5076291;28;20051;-83
2021/04/18 02:19:20;;;;;;;5.97;2.78;;;4.10;99.90;;;;;;5076282;28;20019;-83
2021/04/18 02:21:46;;;;;;;6.50;3.05;;;4.10;99.90;;;;;;5076231;28;20031;-83
2021/04/18 02:24:12;;;;;;;6.85;2.85;;;4.00;99.90;;;;;;5076101;28;20020;-84
2021/04/18 02:26:38;;;;;;;6.38;2.70;;;4.00;99.90;;;;;;5076202;28;20030;-84
2021/04/18 02:29:04;;;;;;;6.05;2.53;;;4.00;99.90;;;;;;5094216;28;20081;-85
2021/04/18 02:31:29;;;;;;;7.10;2.63;;;3.90;99.90;;;;;;5093739;28;20028;-84
2021/04/18 02:33:55;;;;;;;6.18;2.60;;;3.90;99.90;;;;;;5094095;28;20022;-84
2021/04/18 02:36:21;;;;;;;7.70;2.83;;;3.90;99.90;;;;;;5075774;28;20122;-84
2021/04/18 02:38:47;;;;;;;6.15;2.80;;;3.90;99.90;;;;;;5094134;28;20099;-85
2021/04/18 02:41:13;;;;;;;7.28;3.05;;;3.90;99.90;;;;;;5075535;28;20032;-83
2021/04/18 02:43:38;;;;;;;6.90;2.97;;;3.80;99.90;;;;;;5075683;28;20039;-85
2021/04/18 02:46:04;;;;;;;6.72;3.10;;;3.80;99.90;;;;;;5075621;28;20389;-84
2021/04/18 02:48:30;;;;;;;11.73;3.75;;;3.80;99.90;;;;;;5075595;28;20074;-85
2021/04/18 02:50:55;;;;;;;7.82;3.22;;;3.80;99.90;;;;;;5075612;28;20027;-85
2021/04/18 02:53:21;;;;;;;9.68;3.22;;;3.80;99.90;;;;;;5074578;28;20020;-84
2021/04/18 02:55:47;;;;;;;11.65;5.47;;;3.70;99.90;;;;;;5093483;28;20012;-84
2021/04/18 02:58:12;;;;;;;8.70;3.00;;;3.70;99.90;;;;;;5075265;28;20089;-83
2021/04/18 03:00:38;;;;;;;6.43;3.05;;;3.70;99.90;;;;;;5093294;28;20027;-83
2021/04/18 03:03:04;;;;;;;6.68;3.08;;;3.70;99.90;;;;;;5075034;28;20027;-84
2021/04/18 03:05:29;;;;;;;9.65;3.72;;;3.70;99.90;;;;;;5092994;28;20024;-85
2021/04/18 03:07:55;;;;;;;7.25;3.75;;;3.70;99.90;;;;;;5093329;28;20024;-84
2021/04/18 03:10:21;;;;;;;7.18;3.47;;;3.60;99.90;;;;;;5093305;28;20020;-84
2021/04/18 03:12:46;;;;;;;9.52;3.53;;;3.70;99.90;;;;;;5074900;28;20030;-83
2021/04/18 03:15:13;;;;;;;9.52;3.85;;;3.70;99.90;;;;;;5092979;28;20052;-85
2021/04/18 03:17:38;;;;;;;7.43;3.58;;;3.60;99.90;;;;;;5075218;28;20047;-84
2021/04/18 03:20:05;;;;;;;8.35;3.40;;;3.60;99.90;;;;;;5075090;28;20111;-84
2021/04/18 03:22:31;;;;;;;8.07;3.40;;;3.70;99.90;;;;;;5075140;28;20024;-85
2021/04/18 03:24:57;;;;;;;7.65;3.03;;;3.60;99.90;;;;;;5093299;28;20369;-84
2021/04/18 03:27:22;;;;;;;7.22;3.53;;;3.70;99.90;;;;;;5093443;28;20031;-84
2021/04/18 03:29:48;;;;;;;6.32;3.08;;;3.70;99.90;;;;;;5093369;28;20020;-84
2021/04/18 03:32:14;;;;;;;7.38;3.25;;;3.70;99.90;;;;;;5093156;28;20024;-85
2021/04/18 03:34:40;;;;;;;6.95;3.38;;;3.70;99.90;;;;;;5074887;28;20012;-84
2021/04/18 03:37:07;;;;;;;9.68;3.88;;;3.70;99.90;;;;;;5078934;28;20035;-83
2021/04/18 03:39:33;;;;;;;9.18;3.75;;;3.70;99.90;;;;;;5089144;28;20596;-85
2021/04/18 03:41:59;;;;;;;9.82;4.10;;;3.70;99.90;;;;;;5102692;28;20028;-83
2021/04/18 03:44:24;;;;;;;7.80;3.88;;;3.60;99.90;;;;;;5079508;28;20073;-85
2021/04/18 03:46:51;;;;;;;8.68;4.03;;;3.60;99.90;;;;;;5075240;28;20031;-84
2021/04/18 03:49:16;;;;;;;9.38;4.47;;;3.60;99.90;;;;;;5092979;28;20063;-84
2021/04/18 03:51:42;;;;;;;11.27;5.50;;;3.60;99.90;;;;;;5074953;28;20217;-84
2021/04/18 03:54:08;;;;;;;10.30;4.50;;;3.60;99.90;;;;;;5093390;28;20048;-83
2021/04/18 03:56:34;;;;;;;9.10;4.75;;;3.60;99.90;;;;;;5074802;28;20082;-85
2021/04/18 03:59:00;;;;;;;6.30;3.67;;;3.60;99.90;;;;;;5074992;28;20012;-84
2021/04/18 04:01:25;;;;;;;7.40;4.25;;;3.60;99.90;;;;;;5074988;28;20025;-85
2021/04/18 04:03:51;;;;;;;9.95;4.60;;;3.50;99.90;;;;;;5074869;28;20118;-85
2021/04/18 04:06:16;;;;;;;11.73;4.75;;;3.50;99.90;;;;;;5078080;28;20188;-84
2021/04/18 04:08:42;;;;;;;10.30;4.47;;;3.60;99.90;;;;;;5078677;28;20456;-85
2021/04/18 04:11:07;;;;;;;8.88;4.65;;;3.50;99.90;;;;;;5096802;28;20099;-84
2021/04/18 04:13:33;;;;;;;10.23;4.15;;;3.50;99.90;;;;;;5096698;28;20538;-84
2021/04/18 04:15:59;;;;;;;9.50;4.25;;;3.50;99.90;;;;;;5096284;28;20084;-83
2021/04/18 04:18:24;;;;;;;7.57;3.85;;;3.50;99.90;;;;;;5078320;28;20059;-84
2021/04/18 04:20:50;;;;;;;8.98;4.18;;;3.40;99.90;;;;;;5096300;28;20370;-84
2021/04/18 04:23:15;;;;;;;7.78;3.55;;;3.40;99.90;;;;;;5078563;28;20012;-85
2021/04/18 04:25:41;;;;;;;7.85;4.10;;;3.40;99.90;;;;;;5096446;28;20362;-85
2021/04/18 04:28:07;;;;;;;6.75;3.50;;;3.30;99.90;;;;;;5078891;28;20097;-86
2021/04/18 04:30:34;;;;;;;8.05;3.60;;;3.30;99.90;;;;;;5096991;28;20026;-86
2021/04/18 04:32:59;;;;;;;6.22;3.80;;;3.30;99.90;;;;;;5097149;28;20072;-85
2021/04/18 04:35:25;;;;;;;7.55;4.03;;;3.30;99.90;;;;;;5078764;28;20051;-85
2021/04/18 04:37:50;;;;;;;8.10;3.80;;;3.20;99.90;;;;;;5079029;28;20115;-85
2021/04/18 04:40:16;;;;;;;5.10;3.08;;;3.30;99.90;;;;;;5096714;28;20024;-84
2021/04/18 04:42:42;;;;;;;5.18;3.05;;;3.20;99.90;;;;;;5077872;28;20482;-84
2021/04/18 04:45:08;;;;;;;4.32;3.00;;;3.20;99.90;;;;;;5096341;28;20045;-84
2021/04/18 04:47:34;;;;;;;4.03;2.47;;;3.30;99.90;;;;;;5077769;28;20032;-84
2021/04/18 04:50:00;;;;;;;4.15;2.47;;;3.20;99.90;;;;;;5078094;28;20174;-85
2021/04/18 04:52:26;;;;;;;4.28;2.65;;;3.20;99.90;;;;;;5078007;28;20031;-84
2021/04/18 04:54:52;;;;;;;4.90;2.80;;;3.20;99.90;;;;;;5077951;28;20020;-84
2021/04/18 04:57:18;;;;;;;5.78;3.08;;;3.20;99.90;;;;;;5077975;28;20032;-84
2021/04/18 04:59:44;;;;;;;4.72;2.78;;;3.20;99.90;;;;;;5095658;28;20141;-83
2021/04/18 05:02:09;;;;;;;5.20;2.25;;;3.10;99.90;;;;;;5077806;28;20036;-83
2021/04/18 05:04:35;;;;;;;4.28;1.95;;;3.20;99.90;;;;;;5095735;28;20020;-84
2021/04/18 05:07:01;;;;;;;4.95;2.80;;;3.20;99.90;;;;;;5077583;28;20027;-84
2021/04/18 05:09:27;;;;;;;4.20;2.83;;;3.20;99.90;;;;;;5077363;28;20477;-84
2021/04/18 05:11:54;;;;;;;4.10;2.40;;;3.20;99.90;;;;;;5095613;28;20032;-84
2021/04/18 05:14:20;;;;;;;4.50;2.53;;;3.20;99.90;;;;;;5095791;28;20012;-84
2021/04/18 05:16:45;;;;;;;4.45;2.47;;;3.20;99.90;;;;;;5076412;28;20059;-83
2021/04/18 05:19:11;;;;;;;4.65;2.83;;;3.20;99.90;;;;;;5077449;28;20050;-84
2021/04/18 05:21:36;;;;;;;5.38;3.10;;;3.30;99.90;;;;;;5077104;28;20028;-83
2021/04/18 05:24:02;;;;;;;4.85;2.58;;;3.30;99.90;;;;;;5077497;28;20521;-84
2021/04/18 05:26:28;;;;;;;5.80;2.72;;;3.30;99.90;;;;;;5077663;28;20110;-85
2021/04/18 05:28:55;;;;;;;4.93;2.60;;;3.30;99.90;;;;;;5095186;28;20012;-84
2021/04/18 05:31:21;;;;;;;4.82;2.75;;;3.30;99.90;;;;;;5077334;28;20020;-84
2021/04/18 05:33:47;;;;;;;4.55;2.65;;;3.40;99.90;;;;;;5095198;28;20024;-84
2021/04/18 05:36:13;;;;;;;5.20;2.33;;;3.40;99.90;;;;;;5095151;28;20035;-84
2021/04/18 05:38:38;;;;;;;4.60;2.50;;;3.50;99.90;;;;;;5077635;28;20008;-84
2021/04/18 05:41:04;;;;;;;4.22;2.60;;;3.60;99.90;;;;;;5095347;28;20028;-84
2021/04/18 05:43:30;;;;;;;4.68;2.40;;;3.60;99.90;;;;;;5077195;28;20474;-84
2021/04/18 05:45:55;;;;;;;4.38;2.60;;;3.70;99.90;;;;;;5076916;28;20469;-84
2021/04/18 05:48:21;;;;;;;5.68;2.42;;;3.80;99.90;;;;;;5077710;28;20028;-86
2021/04/18 05:50:47;;;;;;;5.28;2.55;;;3.80;99.90;;;;;;5077386;28;20020;-84
2021/04/18 05:53:13;;;;;;;4.70;2.60;;;3.80;99.90;;;;;;5076957;28;20060;-84
2021/04/18 05:55:40;;;;;;;6.00;3.50;;;3.90;99.90;;;;;;5094973;28;20107;-84
2021/04/18 05:58:07;;;;;;;4.60;2.80;;;3.90;99.90;;;;;;5094771;28;20115;-84
2021/04/18 06:00:33;;;;;;;5.15;2.75;;;4.00;99.90;;;;;;5076980;28;20124;-85
2021/04/18 06:02:58;;;;;;;6.25;3.10;;;4.10;99.90;;;;;;5076765;28;20064;-85
2021/04/18 06:05:24;;;;;;;5.05;2.63;;;4.20;99.90;;;;;;5094829;28;20406;-84
2021/04/18 06:07:50;;;;;;;5.28;3.30;;;4.20;99.90;;;;;;5076797;28;20478;-85
2021/04/18 06:10:15;;;;;;;6.05;3.38;;;4.30;99.90;;;;;;5076525;28;20354;-85
2021/04/18 06:12:41;;;;;;;6.55;3.30;;;4.40;99.90;;;;;;5076354;28;20082;-84
2021/04/18 06:15:07;;;;;;;6.93;3.22;;;4.50;99.90;;;;;;5076298;28;20040;-85
2021/04/18 06:17:33;;;;;;;7.05;3.88;;;4.50;99.90;;;;;;5076362;28;20042;-84
2021/04/18 06:19:58;;;;;;;8.02;4.40;;;4.60;99.90;;;;;;5076557;28;20017;-86
2021/04/18 06:22:24;;;;;;;8.25;4.13;;;4.70;99.90;;;;;;5094359;28;20104;-85
2021/04/18 06:24:50;;;;;;;7.03;3.83;;;4.80;99.90;;;;;;5094139;28;20032;-85
2021/04/18 06:27:15;;;;;;;7.60;3.55;;;4.90;99.90;;;;;;5076242;28;20019;-86
2021/04/18 06:29:41;;;;;;;6.57;3.80;;;5.00;99.90;;;;;;5076423;28;20225;-85
2021/04/18 06:32:07;;;;;;;7.13;4.10;;;5.10;99.90;;;;;;5094172;28;20038;-84
2021/04/18 06:34:33;;;;;;;8.15;4.43;;;5.20;99.90;;;;;;5094063;28;20111;-84
2021/04/18 06:36:58;;;;;;;6.45;3.80;;;5.30;99.90;;;;;;5094507;28;20091;-86
2021/04/18 06:39:24;;;;;;;8.55;4.35;;;5.40;99.90;;;;;;5075879;28;20462;-83
2021/04/18 06:41:55;;;;;;;6.63;3.60;;;5.40;99.90;;;;;;5076434;28;20115;-83
2021/04/18 06:44:21;;;;;;;5.38;2.75;;;5.60;99.90;;;;;;5094429;28;20173;-85
2021/04/18 06:46:51;;;;;;;9.02;3.08;;;5.70;99.90;;;;;;5094027;28;20028;-85
2021/04/18 06:49:18;;;;;;;6.78;3.30;;;5.70;99.90;;;;;;5075938;28;20028;-85
2021/04/18 06:51:45;;;;;;;7.53;3.50;;;5.80;99.90;;;;;;5094007;28;20485;-83
2021/04/18 06:54:11;;;;;;;6.25;3.33;;;5.90;99.90;;;;;;5075527;28;20485;-85
2021/04/18 06:56:38;;;;;;;6.95;4.30;;;6.00;99.90;;;;;;5092681;28;20036;-85
2021/04/18 06:59:04;;;;;;;7.88;4.47;;;6.10;99.90;;;;;;5075532;28;20020;-83
2021/04/18 07:01:30;;;;;;;7.32;4.03;;;6.10;99.90;;;;;;5094020;28;20024;-85
2021/04/18 07:04:15;;;;;;;8.73;4.65;;;6.20;99.90;;;;;;5075413;28;20013;-84
2021/04/18 07:06:53;;;;;;;10.40;4.85;;;6.30;99.90;;;;;;5075656;28;20046;-84
2021/04/18 07:09:24;;;;;;;9.13;5.20;;;6.30;99.90;;;;;;5075728;28;20035;-85
2021/04/18 07:11:54;;;;;;;10.70;5.63;;;6.40;99.90;;;;;;5076952;28;20046;-85
2021/04/18 07:14:31;;;;;;;8.70;5.85;;;6.40;99.90;;;;;;5093670;28;20024;-85
2021/04/18 07:17:12;;;;;;;7.63;4.95;;;6.40;99.90;;;;;;5093875;28;20063;-85
2021/04/18 07:19:43;;;;;;;10.65;5.78;;;6.50;99.90;;;;;;5075622;28;20055;-85
2021/04/18 07:22:09;;;;;;;9.95;5.13;;;6.50;99.90;;;;;;5071442;28;20031;-84
2021/04/18 07:24:59;;;;;;;10.73;6.13;;;6.60;99.90;;;;;;5094914;28;20023;-88
2021/04/18 07:27:42;;;;;;;9.80;5.50;;;6.70;99.90;;;;;;5097719;28;20085;-86
2021/04/18 07:30:08;;;;;;;11.35;6.00;;;6.70;99.90;;;;;;5092914;28;20022;-86
2021/04/18 07:32:34;;;;;;;7.50;4.97;;;6.70;99.90;;;;;;5074223;28;20036;-86
2021/04/18 07:35:01;;;;;;;7.03;4.22;;;6.80;99.90;;;;;;5074230;28;20103;-86
2021/04/18 07:37:28;;;;;;;8.55;4.40;;;6.80;99.90;;;;;;5074383;28;20035;-83
2021/04/18 07:39:56;;;;;;;6.72;3.97;;;6.90;99.90;;;;;;5073594;28;20043;-86
2021/04/18 07:42:38;;;;;;;6.97;4.35;;;7.00;99.90;;;;;;5061243;28;20024;-84
2021/04/18 07:45:07;;;;;;;5.22;3.70;;;7.10;99.90;;;;;;5093131;28;20513;-86
2021/04/18 07:47:35;;;;;;;6.25;3.83;;;7.30;99.90;;;;;;5090046;28;20095;-86
2021/04/18 07:50:02;;;;;;;7.65;3.90;;;7.40;99.90;;;;;;5090246;28;20071;-85
2021/04/18 07:52:29;;;;;;;7.30;4.25;;;7.50;99.90;;;;;;5091889;28;20032;-85
2021/04/18 07:54:54;;;;;;;7.68;4.20;;;7.70;99.90;;;;;;5091641;28;20470;-85
2021/04/18 07:57:21;;;;;;;7.70;4.13;;;7.80;99.90;;;;;;5073253;28;20038;-85
2021/04/18 07:59:48;;;;;;;5.45;3.95;;;8.00;99.90;;;;;;5074134;28;20024;-83
2021/04/18 08:02:18;;;;;;;8.45;4.03;;;8.10;99.90;;;;;;5073794;28;20020;-85
2021/04/18 08:04:47;;;;;;;6.57;3.50;;;8.30;99.90;;;;;;5074033;28;20028;-86
2021/04/18 08:07:12;;;;;;;8.25;3.78;;;8.40;99.90;;;;;;5071464;28;20020;-86
2021/04/18 08:09:38;;;;;;;7.90;3.65;;;8.70;99.90;;;;;;5091100;28;20069;-86
2021/04/18 08:12:11;;;;;;;6.57;3.63;;;9.00;99.90;;;;;;5075005;28;20501;-86
2021/04/18 08:14:40;;;;;;;6.18;3.17;;;9.20;99.90;;;;;;5073681;28;20024;-87
2021/04/18 08:17:08;;;;;;;5.53;3.20;;;9.40;99.90;;;;;;5092518;28;20044;-87
2021/04/18 08:19:34;;;;;;;5.72;2.95;;;9.50;99.90;;;;;;5091874;28;20035;-86
2021/04/18 08:21:59;;;;;;;5.60;3.47;;;9.60;99.90;;;;;;5092176;28;20016;-88
2021/04/18 08:24:25;;;;;;;5.45;3.00;;;9.70;99.90;;;;;;5091969;28;20670;-87
2021/04/18 08:27:01;;;;;;;5.53;2.95;;;9.70;99.90;;;;;;5073521;28;20441;-89
2021/04/18 08:29:27;;;;;;;6.18;2.70;;;9.80;99.90;;;;;;5074017;28;20032;-87
2021/04/18 08:32:06;;;;;;;7.25;2.95;;;9.90;99.90;;;;;;5073900;28;20071;-88
2021/04/18 08:34:38;;;;;;;5.93;2.60;;;10.00;99.90;;;;;;5058722;28;20390;-89
2021/04/18 08:37:11;;;;;;;5.35;3.17;;;10.00;99.90;;;;;;5074193;28;20036;-88
2021/04/18 08:39:38;;;;;;;7.10;2.78;;;10.10;99.90;;;;;;5073734;28;20030;-90
2021/04/18 08:42:08;;;;;;;5.97;3.17;;;10.20;99.90;;;;;;5075038;28;20027;-90
2021/04/18 08:44:37;;;;;;;5.93;3.42;;;10.30;99.90;;;;;;5075204;28;20028;-90
2021/04/18 08:47:10;;;;;;;5.72;2.80;;;10.40;99.80;;;;;;5074205;28;20046;-87
2021/04/18 08:49:42;;;;;;;5.18;2.50;;;10.50;99.50;;;;;;5073243;28;20021;-86
2021/04/18 08:52:11;;;;;;;5.32;3.10;;;10.50;99.30;;;;;;5073619;28;20070;-87
2021/04/18 08:54:40;;;;;;;6.40;3.15;;;10.60;99.20;;;;;;5075896;28;20457;-85
2021/04/18 08:57:10;;;;;;;6.65;2.95;;;10.70;99.00;;;;;;5080566;28;20050;-88
2021/04/18 08:59:37;;;;;;;7.88;2.67;;;10.80;98.60;;;;;;5081585;28;20043;-87
2021/04/18 09:02:06;;;;;;;6.40;3.17;;;10.90;98.20;;;;;;5068800;28;20050;-85
2021/04/18 09:04:47;;;;;;;5.90;3.53;;;11.00;97.80;;;;;;5075724;28;20508;-87
2021/04/18 09:07:18;;;;;;;5.82;2.65;;;11.10;97.70;;;;;;5076179;28;20057;-85
2021/04/18 09:09:45;;;;;;;5.72;2.38;;;11.10;97.40;;;;;;5073234;28;20065;-87
2021/04/18 09:12:13;;;;;;;5.68;2.67;;;11.20;97.50;;;;;;5074756;28;20020;-84
2021/04/18 09:14:43;;;;;;;5.65;2.70;;;11.40;97.00;;;;;;5075011;28;20017;-86
2021/04/18 09:17:26;;;;;;;5.68;2.40;;;11.50;96.50;;;;;;5073390;28;20066;-86
2021/04/18 09:19:57;;;;;;;5.57;3.00;;;11.50;96.70;;;;;;5075392;28;20424;-88
2021/04/18 09:22:34;;;;;;;6.97;2.55;;;11.60;96.40;;;;;;5077354;28;20050;-89
2021/04/18 09:25:06;;;;;;;6.50;2.63;;;11.60;96.00;;;;;;5076864;28;20051;-91
2021/04/18 09:27:43;;;;;;;5.30;2.65;;;11.70;95.60;;;;;;5085556;28;20027;-89
2021/04/18 09:30:11;;;;;;;4.55;2.13;;;11.70;95.60;;;;;;5075571;28;20503;-88
2021/04/18 09:32:39;;;;;;;5.07;2.33;;;11.80;95.50;;;;;;5108681;28;20028;-86
2021/04/18 09:35:06;;;;;;;7.38;2.08;;;12.00;95.10;;;;;;5092560;28;20523;-87
2021/04/18 09:37:35;;;;;;;4.32;2.00;;;12.20;94.80;;;;;;5074333;28;20082;-87
2021/04/18 09:40:06;;;;;;;5.35;2.45;;;12.90;95.20;;;;;;5073813;28;20081;-86
2021/04/18 09:42:35;;;;;;;6.88;2.80;;;14.30;94.80;;;;;;5104684;28;20119;-87
2021/04/18 09:45:13;;;;;;;5.35;2.72;;;15.60;91.70;;;;;;5073079;28;20019;-87
2021/04/18 09:47:40;;;;;;;6.30;2.50;;;16.60;90.60;;;;;;5072543;28;20067;-88
2021/04/18 09:50:24;;;;;;;5.60;2.40;;;17.40;89.20;;;;;;5091525;28;20461;-88
2021/04/18 09:52:51;;;;;;;5.13;1.75;;;18.20;85.30;;;;;;5073982;28;20042;-87
2021/04/18 09:55:24;;;;;;;2.95;1.63;;;18.70;84.10;;;;;;5072956;28;20024;-88
2021/04/18 09:57:53;;;;;;;3.80;1.80;;;19.20;83.90;;;;;;5073027;28;20036;-86
2021/04/18 10:00:19;;;;;;;5.35;2.55;;;19.50;83.30;;;;;;5071899;28;20119;-89
2021/04/18 10:03:07;;;;;;;5.30;2.35;;;19.10;80.30;;;;;;5074874;28;20637;-86
2021/04/18 10:05:43;;;;;;;4.85;2.17;;;18.20;79.50;;;;;;5073318;28;20074;-86
2021/04/18 10:08:24;;;;;;;4.68;2.35;;;17.30;80.70;;;;;;5073653;28;20032;-88
2021/04/18 10:10:55;;;;;;;3.97;2.15;;;17.20;82.20;;;;;;5073269;28;20028;-85
2021/04/18 10:13:40;;;;;;;6.93;2.70;;;18.00;81.70;;;;;;5074026;28;20032;-88
2021/04/18 10:16:07;;;;;;;8.35;3.55;;;19.20;78.00;;;;;;5073085;28;20051;-87
2021/04/18 10:18:34;;;;;;;5.45;2.90;;;19.60;76.00;;;;;;5073024;28;20051;-87
2021/04/18 10:21:19;;;;;;;8.07;3.63;;;20.10;76.60;;;;;;5070017;28;20019;-88
2021/04/18 10:23:47;;;;;;;5.82;2.95;;;20.50;75.40;;;;;;5074152;28;20047;-87
2021/04/18 10:26:16;;;;;;;6.05;3.83;;;20.70;74.40;;;;;;5075102;28;20051;-87
2021/04/18 10:28:42;;;;;;;7.38;3.70;;;20.80;73.10;;;;;;5074892;28;20504;-87
2021/04/18 10:31:07;;;;;;;5.82;2.88;;;20.70;71.90;;;;;;5076307;28;20012;-88
2021/04/18 10:33:33;;;;;;;5.28;2.38;;;20.40;73.00;;;;;;5080369;28;20038;-85
2021/04/18 10:35:59;;;;;;;6.65;2.33;;;20.40;74.20;;;;;;5079921;28;20020;-87
2021/04/18 10:38:25;;;;;;;5.65;2.22;;;20.80;73.20;;;;;;5079258;28;20635;-88
2021/04/18 10:40:51;;;;;;;3.50;2.13;;;21.50;72.20;;;;;;5077164;28;20027;-84
2021/04/18 10:43:17;;;;;;;3.97;1.85;;;22.20;70.40;;;;;;5077519;28;20020;-87
2021/04/18 10:45:43;;;;;;;5.88;2.30;;;22.60;68.80;;;;;;5077599;28;20070;-87
2021/04/18 10:48:09;;;;;;;5.20;2.47;;;23.10;64.80;;;;;;5078202;28;20039;-90
2021/04/18 10:50:35;;;;;;;4.18;2.05;;;23.40;62.90;;;;;;5077132;28;20057;-89
2021/04/18 10:53:00;;;;;;;5.05;2.40;;;23.60;61.20;;;;;;5077810;28;20419;-88
2021/04/18 10:55:26;;;;;;;3.70;2.28;;;23.70;60.30;;;;;;5076937;28;20028;-88
2021/04/18 10:57:52;;;;;;;5.32;2.70;;;24.00;60.50;;;;;;5077668;28;20036;-88
2021/04/18 11:00:18;;;;;;;6.20;2.80;;;24.40;58.80;;;;;;5094573;28;20089;-90
2021/04/18 11:02:44;;;;;;;6.82;3.17;;;24.50;56.30;;;;;;5078117;28;20497;-85
2021/04/18 11:05:10;;;;;;;5.32;2.65;;;24.50;55.80;;;;;;5097344;28;20027;-88
2021/04/18 11:07:36;;;;;;;4.03;2.65;;;24.60;55.50;;;;;;5095948;28;20044;-85
2021/04/18 11:10:04;;;;;;;5.57;3.25;;;24.70;55.40;;;;;;5097791;28;20008;-88
2021/04/18 11:12:30;;;;;;;7.40;3.22;;;24.70;54.10;;;;;;5077862;28;20044;-86
2021/04/18 11:14:56;;;;;;;8.38;3.70;;;24.50;54.10;;;;;;5077591;28;20036;-84
2021/04/18 11:17:21;;;;;;;5.35;3.08;;;24.50;53.80;;;;;;5078359;28;20085;-85
2021/04/18 11:19:47;;;;;;;6.35;3.13;;;24.60;53.80;;;;;;5076703;28;20020;-86
2021/04/18 11:22:13;;;;;;;6.25;3.20;;;24.90;53.30;;;;;;5094737;28;20164;-88
2021/04/18 11:24:39;;;;;;;5.85;2.83;;;25.00;52.80;;;;;;5075908;28;20039;-86
2021/04/18 11:27:04;;;;;;;5.32;2.42;;;25.20;52.60;;;;;;5076964;28;20036;-87
2021/04/18 11:29:30;;;;;;;4.78;2.42;;;25.00;52.60;;;;;;5095412;28;20139;-88
2021/04/18 11:31:56;;;;;;;4.63;2.38;;;24.30;53.30;;;;;;5076940;28;20028;-89
2021/04/18 11:34:22;;;;;;;5.25;3.00;;;23.60;53.70;;;;;;5077716;28;20020;-88
2021/04/18 11:36:47;;;;;;;7.03;3.10;;;23.50;54.60;;;;;;5077572;28;20069;-88
2021/04/18 11:39:13;;;;;;;5.55;2.58;;;24.00;54.30;;;;;;5076861;28;20358;-89
2021/04/18 11:41:41;;;;;;;6.18;3.05;;;24.50;53.60;;;;;;5096297;28;20021;-85
2021/04/18 11:44:07;;;;;;;4.82;2.92;;;24.60;53.00;;;;;;5078597;28;20032;-87
2021/04/18 11:46:34;;;;;;;6.53;3.40;;;24.40;53.00;;;;;;5077649;28;20108;-90
2021/04/18 11:49:00;;;;;;;7.25;2.75;;;24.50;52.70;;;;;;5077923;28;20102;-86
2021/04/18 11:51:26;;;;;;;4.43;3.10;;;24.60;52.80;;;;;;5075999;28;20473;-87
2021/04/18 11:53:52;;;;;;;7.63;3.28;;;24.20;52.00;;;;;;5077960;28;20012;-88
2021/04/18 11:56:17;;;;;;;4.38;2.72;;;23.50;53.30;;;;;;5079415;28;20020;-84
2021/04/18 11:58:43;;;;;;;5.20;2.50;;;23.70;53.70;;;;;;5059203;28;20030;-88
2021/04/18 12:01:09;;;;;;;4.88;2.47;;;24.00;52.80;;;;;;5079757;28;20066;-87
2021/04/18 12:03:34;;;;;;;6.32;3.50;;;24.10;53.20;;;;;;5082424;28;20035;-88
2021/04/18 12:06:00;;;;;;;4.28;2.50;;;24.60;52.80;;;;;;5098898;28;20047;-90
2021/04/18 12:08:25;;;;;;;6.13;3.00;;;25.10;51.80;;;;;;5085671;28;20024;-87
2021/04/18 12:10:51;;;;;;;4.95;2.85;;;25.50;51.50;;;;;;5086386;28;20454;-86
2021/04/18 12:13:17;;;;;;;5.35;3.13;;;25.70;51.60;;;;;;5086003;28;20024;-88
2021/04/18 12:15:45;;;;;;;5.72;2.70;;;26.00;50.90;;;;;;5089840;28;20044;-87
2021/04/18 12:18:12;;;;;;;5.63;2.40;;;26.20;50.40;;;;;;5091030;28;20028;-85
2021/04/18 12:20:38;;;;;;;5.35;2.75;;;26.30;50.80;;;;;;5086978;28;20035;-89
2021/04/18 12:23:04;;;;;;;6.80;3.00;;;26.30;50.60;;;;;;5081121;28;20044;-87
2021/04/18 12:25:31;;;;;;;5.80;2.42;;;26.30;49.90;;;;;;5080301;28;20043;-88
2021/04/18 12:27:59;;;;;;;5.68;2.00;;;26.20;49.60;;;;;;5085445;28;20097;-89
2021/04/18 12:30:25;;;;;;;5.35;2.97;;;26.40;50.00;;;;;;5082671;28;20081;-88
2021/04/18 12:32:51;;;;;;;6.13;3.22;;;26.30;49.30;;;;;;5099429;28;20024;-88
2021/04/18 12:35:17;;;;;;;6.13;3.00;;;26.10;48.80;;;;;;5079281;28;20047;-87
2021/04/18 12:37:43;;;;;;;5.05;2.90;;;25.80;49.00;;;;;;5097549;28;20034;-90
2021/04/18 12:40:11;;;;;;;4.07;2.90;;;25.70;49.00;;;;;;5079609;28;20022;-90
2021/04/18 12:42:37;;;;;;;5.78;3.05;;;25.20;48.40;;;;;;5074002;28;20032;-88
2021/04/18 12:45:04;;;;;;;4.85;3.05;;;24.80;49.10;;;;;;5094200;28;20032;-86
2021/04/18 12:47:38;;;;;;;5.95;3.22;;;25.10;49.20;;;;;;5094932;28;20070;-88
2021/04/18 12:50:05;;;;;;;5.18;2.92;;;25.20;49.10;;;;;;5101774;28;20329;-86
2021/04/18 12:52:30;;;;;;;5.55;2.60;;;25.40;49.00;;;;;;5104659;28;20024;-87
2021/04/18 12:54:56;;;;;;;6.57;3.33;;;25.70;48.80;;;;;;5096572;28;20492;-86